sensor_id;sensor_type;location;lat;lon;timestamp;pressure;altitude;pressure_sealevel;temperature;humidity
3132;BME280;62090;52.330;9.104;2023-11-21T00:01:36;100463.16;;;9.67;100.00
3132;BME280;62090;52.330;9.104;2023-11-21T00:04:06;100451.88;;;9.57;100.00
3132;BME280;62090;52.330;9.104;2023-11-21T00:06:36;100410.72;;;9.38;100.00
3132;BME280;62090;52.330;9.104;2023-11-21T00:09:07;100437.38;;;9.53;100.00
3132;BME280;62090;52.330;9.104;2023-11-21T00:11:42;100400.34;;;9.28;100.00
3132;BME280;62090;52.330;9.104;2023-11-21T00:14:12;100457.88;;;9.59;100.00
3132;BME280;62090;52.330;9.104;2023-11-21T00:16:42;100455.16;;;9.53;100.00
3132;BME280;62090;52.330;9.104;2023-11-21T00:19:12;100458.53;;;9.51;100.00
3132;BME280;62090;52.330;9.104;2023-11-21T00:21:43;100429.22;;;9.32;100.00
3132;BME280;62090;52.330;9.104;2023-11-21T00:24:13;100436.19;;;9.39;100.00
3132;BME280;62090;52.330;9.104;2023-11-21T00:26:46;100448.09;;;9.42;100.00
3132;BME280;62090;52.330;9.104;2023-11-21T00:29:16;100468.75;;;9.54;100.00
3132;BME280;62090;52.330;9.104;2023-11-21T00:31:45;100465.38;;;9.55;100.00
3132;BME280;62090;52.330;9.104;2023-11-21T00:34:15;100399.66;;;9.01;100.00
3132;BME280;62090;52.330;9.104;2023-11-21T00:36:46;100480.34;;;9.43;100.00
3132;BME280;62090;52.330;9.104;2023-11-21T00:39:16;100461.34;;;9.28;100.00
3132;BME280;62090;52.330;9.104;2023-11-21T00:41:49;100482.28;;;9.53;100.00
3132;BME280;62090;52.330;9.104;2023-11-21T00:44:19;100479.69;;;9.50;100.00
3132;BME280;62090;52.330;9.104;2023-11-21T00:46:48;100483.34;;;9.61;100.00
3132;BME280;62090;52.330;9.104;2023-11-21T00:49:19;100480.97;;;9.68;100.00
3132;BME280;62090;52.330;9.104;2023-11-21T00:51:49;100432.84;;;9.40;100.00
3132;BME280;62090;52.330;9.104;2023-11-21T00:54:19;100482.75;;;9.71;100.00
3132;BME280;62090;52.330;9.104;2023-11-21T00:56:51;100488.69;;;9.71;100.00
3132;BME280;62090;52.330;9.104;2023-11-21T00:59:21;100483.59;;;9.71;100.00
3132;BME280;62090;52.330;9.104;2023-11-21T01:01:52;100490.44;;;9.74;100.00
3132;BME280;62090;52.330;9.104;2023-11-21T01:04:22;100462.13;;;9.60;100.00
3132;BME280;62090;52.330;9.104;2023-11-21T01:06:53;100458.66;;;9.57;100.00
3132;BME280;62090;52.330;9.104;2023-11-21T01:09:23;100499.75;;;9.73;100.00
3132;BME280;62090;52.330;9.104;2023-11-21T01:11:56;100504.00;;;9.74;100.00
3132;BME280;62090;52.330;9.104;2023-11-21T01:14:27;100479.75;;;9.53;100.00
3132;BME280;62090;52.330;9.104;2023-11-21T01:16:57;100500.59;;;9.72;100.00
3132;BME280;62090;52.330;9.104;2023-11-21T01:19:27;100459.25;;;9.47;100.00
3132;BME280;62090;52.330;9.104;2023-11-21T01:21:57;100475.63;;;9.58;100.00
3132;BME280;62090;52.330;9.104;2023-11-21T01:24:27;100511.09;;;9.86;100.00
3132;BME280;62090;52.330;9.104;2023-11-21T01:27:00;100516.28;;;9.91;100.00
3132;BME280;62090;52.330;9.104;2023-11-21T01:29:31;100515.28;;;9.84;100.00
3132;BME280;62090;52.330;9.104;2023-11-21T01:32:02;100467.03;;;9.53;100.00
3132;BME280;62090;52.330;9.104;2023-11-21T01:34:35;100449.84;;;9.43;100.00
3132;BME280;62090;52.330;9.104;2023-11-21T01:37:05;100455.94;;;9.49;100.00
3132;BME280;62090;52.330;9.104;2023-11-21T01:39:36;100524.00;;;9.95;100.00
3132;BME280;62090;52.330;9.104;2023-11-21T01:42:08;100511.38;;;9.98;100.00
3132;BME280;62090;52.330;9.104;2023-11-21T01:44:40;100519.03;;;9.98;100.00
3132;BME280;62090;52.330;9.104;2023-11-21T01:47:10;100408.00;;;9.30;100.00
3132;BME280;62090;52.330;9.104;2023-11-21T01:49:40;100501.69;;;9.84;100.00
3132;BME280;62090;52.330;9.104;2023-11-21T01:52:12;100519.94;;;10.02;100.00
3132;BME280;62090;52.330;9.104;2023-11-21T01:54:43;100447.88;;;9.67;100.00
3132;BME280;62090;52.330;9.104;2023-11-21T01:57:15;100481.50;;;9.91;100.00
3132;BME280;62090;52.330;9.104;2023-11-21T01:59:48;100512.41;;;10.06;100.00
3132;BME280;62090;52.330;9.104;2023-11-21T02:02:18;100499.38;;;9.93;100.00
3132;BME280;62090;52.330;9.104;2023-11-21T02:04:48;100517.34;;;10.00;100.00
3132;BME280;62090;52.330;9.104;2023-11-21T02:07:18;100513.69;;;9.89;100.00
3132;BME280;62090;52.330;9.104;2023-11-21T02:09:50;100513.47;;;9.80;100.00
3132;BME280;62090;52.330;9.104;2023-11-21T02:12:23;100517.91;;;9.89;100.00
3132;BME280;62090;52.330;9.104;2023-11-21T02:14:53;100486.78;;;9.63;100.00
3132;BME280;62090;52.330;9.104;2023-11-21T02:17:23;100520.34;;;9.83;100.00
3132;BME280;62090;52.330;9.104;2023-11-21T02:19:54;100494.34;;;9.60;100.00
3132;BME280;62090;52.330;9.104;2023-11-21T02:22:25;100482.22;;;9.50;100.00
3132;BME280;62090;52.330;9.104;2023-11-21T02:25:00;100440.81;;;9.19;100.00
3132;BME280;62090;52.330;9.104;2023-11-21T02:27:30;100513.00;;;9.60;100.00
3132;BME280;62090;52.330;9.104;2023-11-21T02:30:00;100502.75;;;9.57;100.00
3132;BME280;62090;52.330;9.104;2023-11-21T02:32:31;100452.97;;;9.32;100.00
3132;BME280;62090;52.330;9.104;2023-11-21T02:35:14;100503.69;;;9.61;100.00
3132;BME280;62090;52.330;9.104;2023-11-21T02:37:44;100549.38;;;9.91;100.00
3132;BME280;62090;52.330;9.104;2023-11-21T02:40:17;100524.41;;;9.76;100.00
3132;BME280;62090;52.330;9.104;2023-11-21T02:42:48;100544.31;;;9.92;100.00
3132;BME280;62090;52.330;9.104;2023-11-21T02:45:19;100552.72;;;9.88;100.00
3132;BME280;62090;52.330;9.104;2023-11-21T02:47:51;100522.63;;;9.72;100.00
3132;BME280;62090;52.330;9.104;2023-11-21T02:50:25;100524.22;;;9.67;100.00
3132;BME280;62090;52.330;9.104;2023-11-21T02:52:56;100537.84;;;9.70;100.00
3132;BME280;62090;52.330;9.104;2023-11-21T02:55:30;100545.69;;;9.80;100.00
3132;BME280;62090;52.330;9.104;2023-11-21T02:58:01;100547.31;;;9.76;100.00
3132;BME280;62090;52.330;9.104;2023-11-21T03:00:31;100548.75;;;9.65;100.00
3132;BME280;62090;52.330;9.104;2023-11-21T03:03:01;100544.63;;;9.70;100.00
3132;BME280;62090;52.330;9.104;2023-11-21T03:05:31;100475.75;;;9.28;100.00
3132;BME280;62090;52.330;9.104;2023-11-21T03:08:02;100548.78;;;9.66;100.00
3132;BME280;62090;52.330;9.104;2023-11-21T03:10:35;100498.75;;;9.32;100.00
3132;BME280;62090;52.330;9.104;2023-11-21T03:13:05;100557.19;;;9.64;100.00
3132;BME280;62090;52.330;9.104;2023-11-21T03:15:35;100555.47;;;9.63;100.00
3132;BME280;62090;52.330;9.104;2023-11-21T03:18:05;100552.03;;;9.61;100.00
3132;BME280;62090;52.330;9.104;2023-11-21T03:20:35;100533.88;;;9.47;100.00
3132;BME280;62090;52.330;9.104;2023-11-21T03:23:05;100464.25;;;9.09;100.00
3132;BME280;62090;52.330;9.104;2023-11-21T03:25:38;100555.44;;;9.61;100.00
3132;BME280;62090;52.330;9.104;2023-11-21T03:28:08;100565.09;;;9.74;100.00
3132;BME280;62090;52.330;9.104;2023-11-21T03:30:38;100539.44;;;9.65;100.00
3132;BME280;62090;52.330;9.104;2023-11-21T03:33:08;100539.31;;;9.61;100.00
3132;BME280;62090;52.330;9.104;2023-11-21T03:35:39;100576.44;;;9.87;100.00
3132;BME280;62090;52.330;9.104;2023-11-21T03:38:10;100577.41;;;9.92;100.00
3132;BME280;62090;52.330;9.104;2023-11-21T03:40:42;100563.50;;;9.80;100.00
3132;BME280;62090;52.330;9.104;2023-11-21T03:43:13;100563.63;;;9.84;100.00
3132;BME280;62090;52.330;9.104;2023-11-21T03:45:43;100589.56;;;10.04;100.00
3132;BME280;62090;52.330;9.104;2023-11-21T03:48:13;100581.75;;;9.96;100.00
3132;BME280;62090;52.330;9.104;2023-11-21T03:50:43;100581.69;;;9.93;100.00
3132;BME280;62090;52.330;9.104;2023-11-21T03:53:14;100537.97;;;9.75;100.00
3132;BME280;62090;52.330;9.104;2023-11-21T03:55:46;100552.66;;;9.87;100.00
3132;BME280;62090;52.330;9.104;2023-11-21T03:58:17;100591.31;;;10.06;100.00
3132;BME280;62090;52.330;9.104;2023-11-21T04:00:47;100597.31;;;10.08;100.00
3132;BME280;62090;52.330;9.104;2023-11-21T04:03:17;100597.22;;;10.05;100.00
3132;BME280;62090;52.330;9.104;2023-11-21T04:05:47;100599.66;;;10.01;100.00
3132;BME280;62090;52.330;9.104;2023-11-21T04:08:17;100584.94;;;9.89;100.00
3132;BME280;62090;52.330;9.104;2023-11-21T04:10:49;100567.03;;;9.85;100.00
3132;BME280;62090;52.330;9.104;2023-11-21T04:13:20;100519.63;;;9.54;100.00
3132;BME280;62090;52.330;9.104;2023-11-21T04:15:50;100608.38;;;10.09;100.00
3132;BME280;62090;52.330;9.104;2023-11-21T04:18:20;100597.00;;;9.96;100.00
3132;BME280;62090;52.330;9.104;2023-11-21T04:20:51;100611.78;;;10.11;100.00
3132;BME280;62090;52.330;9.104;2023-11-21T04:23:21;100617.78;;;10.13;100.00
3132;BME280;62090;52.330;9.104;2023-11-21T04:25:53;100626.38;;;10.16;100.00
3132;BME280;62090;52.330;9.104;2023-11-21T04:28:24;100625.47;;;10.14;100.00
3132;BME280;62090;52.330;9.104;2023-11-21T04:30:54;100600.53;;;10.01;100.00
3132;BME280;62090;52.330;9.104;2023-11-21T04:33:24;100614.19;;;10.05;100.00
3132;BME280;62090;52.330;9.104;2023-11-21T04:35:54;100637.53;;;10.20;100.00
3132;BME280;62090;52.330;9.104;2023-11-21T04:38:24;100620.47;;;10.18;100.00
3132;BME280;62090;52.330;9.104;2023-11-21T04:40:57;100632.44;;;10.22;100.00
3132;BME280;62090;52.330;9.104;2023-11-21T04:43:29;100640.75;;;10.14;100.00
3132;BME280;62090;52.330;9.104;2023-11-21T04:45:59;100635.53;;;10.10;100.00
3132;BME280;62090;52.330;9.104;2023-11-21T04:48:29;100631.28;;;10.10;100.00
3132;BME280;62090;52.330;9.104;2023-11-21T04:50:59;100648.50;;;10.18;100.00
3132;BME280;62090;52.330;9.104;2023-11-21T04:53:29;100646.75;;;10.16;100.00
3132;BME280;62090;52.330;9.104;2023-11-21T04:56:02;100651.09;;;10.21;100.00
3132;BME280;62090;52.330;9.104;2023-11-21T04:58:32;100645.78;;;10.13;100.00
3132;BME280;62090;52.330;9.104;2023-11-21T05:01:02;100651.94;;;10.20;100.00
3132;BME280;62090;52.330;9.104;2023-11-21T05:03:34;100588.09;;;9.79;100.00
3132;BME280;62090;52.330;9.104;2023-11-21T05:06:06;100633.13;;;10.14;100.00
3132;BME280;62090;52.330;9.104;2023-11-21T05:08:36;100602.00;;;9.92;100.00
3132;BME280;62090;52.330;9.104;2023-11-21T05:11:09;100655.47;;;10.25;100.00
3132;BME280;62090;52.330;9.104;2023-11-21T05:13:38;100643.28;;;10.14;100.00
3132;BME280;62090;52.330;9.104;2023-11-21T05:16:09;100633.03;;;10.11;100.00
3132;BME280;62090;52.330;9.104;2023-11-21T05:18:39;100625.28;;;10.07;100.00
3132;BME280;62090;52.330;9.104;2023-11-21T05:21:09;100663.13;;;10.26;100.00
3132;BME280;62090;52.330;9.104;2023-11-21T05:23:39;100649.16;;;10.12;100.00
3132;BME280;62090;52.330;9.104;2023-11-21T05:26:12;100638.16;;;10.13;100.00
3132;BME280;62090;52.330;9.104;2023-11-21T05:28:41;100647.72;;;10.20;100.00
3132;BME280;62090;52.330;9.104;2023-11-21T05:31:11;100672.69;;;10.35;100.00
3132;BME280;62090;52.330;9.104;2023-11-21T05:33:43;100687.00;;;10.30;100.00
3132;BME280;62090;52.330;9.104;2023-11-21T05:36:13;100685.38;;;10.33;100.00
3132;BME280;62090;52.330;9.104;2023-11-21T05:38:43;100692.25;;;10.36;100.00
3132;BME280;62090;52.330;9.104;2023-11-21T05:41:15;100687.97;;;10.35;100.00
3132;BME280;62090;52.330;9.104;2023-11-21T05:43:45;100668.91;;;10.21;100.00
3132;BME280;62090;52.330;9.104;2023-11-21T05:46:15;100684.50;;;10.33;100.00
3132;BME280;62090;52.330;9.104;2023-11-21T05:48:45;100691.19;;;10.28;100.00
3132;BME280;62090;52.330;9.104;2023-11-21T05:51:15;100681.66;;;10.21;100.00
3132;BME280;62090;52.330;9.104;2023-11-21T05:53:45;100636.81;;;9.94;100.00
3132;BME280;62090;52.330;9.104;2023-11-21T05:56:17;100670.59;;;10.19;100.00
3132;BME280;62090;52.330;9.104;2023-11-21T05:58:47;100694.59;;;10.28;100.00
3132;BME280;62090;52.330;9.104;2023-11-21T06:01:18;100680.00;;;10.23;100.00
3132;BME280;62090;52.330;9.104;2023-11-21T06:03:48;100682.50;;;10.20;100.00
3132;BME280;62090;52.330;9.104;2023-11-21T06:06:18;100685.19;;;10.26;100.00
3132;BME280;62090;52.330;9.104;2023-11-21T06:08:49;100691.88;;;10.22;100.00
3132;BME280;62090;52.330;9.104;2023-11-21T06:11:21;100645.38;;;9.96;100.00
3132;BME280;62090;52.330;9.104;2023-11-21T06:13:51;100667.69;;;10.06;100.00
3132;BME280;62090;52.330;9.104;2023-11-21T06:16:22;100715.16;;;10.36;100.00
3132;BME280;62090;52.330;9.104;2023-11-21T06:18:52;100722.97;;;10.43;100.00
3132;BME280;62090;52.330;9.104;2023-11-21T06:21:22;100727.19;;;10.43;100.00
3132;BME280;62090;52.330;9.104;2023-11-21T06:23:52;100722.66;;;10.30;100.00
3132;BME280;62090;52.330;9.104;2023-11-21T06:26:26;100725.09;;;10.25;100.00
3132;BME280;62090;52.330;9.104;2023-11-21T06:28:58;100736.16;;;10.27;100.00
3132;BME280;62090;52.330;9.104;2023-11-21T06:31:30;100706.03;;;10.12;100.00
3132;BME280;62090;52.330;9.104;2023-11-21T06:34:00;100759.34;;;10.38;100.00
3132;BME280;62090;52.330;9.104;2023-11-21T06:36:30;100723.03;;;10.13;100.00
3132;BME280;62090;52.330;9.104;2023-11-21T06:39:00;100743.03;;;10.31;100.00
3132;BME280;62090;52.330;9.104;2023-11-21T06:41:36;100769.53;;;10.36;100.00
3132;BME280;62090;52.330;9.104;2023-11-21T06:44:06;100724.50;;;10.04;100.00
3132;BME280;62090;52.330;9.104;2023-11-21T06:46:36;100703.72;;;9.89;100.00
3132;BME280;62090;52.330;9.104;2023-11-21T06:49:09;100786.38;;;10.33;100.00
3132;BME280;62090;52.330;9.104;2023-11-21T06:51:41;100790.63;;;10.32;100.00
3132;BME280;62090;52.330;9.104;2023-11-21T06:54:14;100476.03;;;8.44;100.00
3132;BME280;62090;52.330;9.104;2023-11-21T06:56:47;100694.50;;;9.61;100.00
3132;BME280;62090;52.330;9.104;2023-11-21T06:59:17;100720.09;;;9.67;100.00
3132;BME280;62090;52.330;9.104;2023-11-21T07:01:47;100799.53;;;10.16;100.00
3132;BME280;62090;52.330;9.104;2023-11-21T07:04:17;100795.16;;;10.12;100.00
3132;BME280;62090;52.330;9.104;2023-11-21T07:06:48;100775.81;;;9.88;100.00
3132;BME280;62090;52.330;9.104;2023-11-21T07:09:18;100794.09;;;10.04;100.00
3132;BME280;62090;52.330;9.104;2023-11-21T07:11:51;100738.00;;;9.70;100.00
3132;BME280;62090;52.330;9.104;2023-11-21T07:14:22;100816.34;;;10.11;100.00
3132;BME280;62090;52.330;9.104;2023-11-21T07:16:52;100804.94;;;9.97;100.00
3132;BME280;62090;52.330;9.104;2023-11-21T07:22:15;100861.34;;;10.12;100.00
3132;BME280;62090;52.330;9.104;2023-11-21T07:25:04;100646.09;;;8.98;100.00
3132;BME280;62090;52.330;9.104;2023-11-21T07:27:50;100644.94;;;8.88;100.00
3132;BME280;62090;52.330;9.104;2023-11-21T07:30:40;100507.72;;;8.02;100.00
3132;BME280;62090;52.330;9.104;2023-11-21T07:37:30;100622.75;;;8.28;100.00
3132;BME280;62090;52.330;9.104;2023-11-21T07:40:17;100866.22;;;9.75;100.00
3132;BME280;62090;52.330;9.104;2023-11-21T07:42:51;100790.31;;;9.05;100.00
3132;BME280;62090;52.330;9.104;2023-11-21T07:45:24;100885.25;;;9.32;100.00
3132;BME280;62090;52.330;9.104;2023-11-21T07:47:54;100884.19;;;9.26;100.00
3132;BME280;62090;52.330;9.104;2023-11-21T07:50:25;100884.75;;;9.17;100.00
3132;BME280;62090;52.330;9.104;2023-11-21T07:52:55;100842.44;;;8.93;100.00
3132;BME280;62090;52.330;9.104;2023-11-21T07:55:25;100887.91;;;9.10;100.00
3132;BME280;62090;52.330;9.104;2023-11-21T07:58:01;100890.25;;;9.04;100.00
3132;BME280;62090;52.330;9.104;2023-11-21T08:00:31;100881.97;;;8.84;100.00
3132;BME280;62090;52.330;9.104;2023-11-21T08:03:01;100888.53;;;8.78;100.00
3132;BME280;62090;52.330;9.104;2023-11-21T08:05:32;100851.69;;;8.65;100.00
3132;BME280;62090;52.330;9.104;2023-11-21T08:08:04;100883.25;;;8.72;100.00
3132;BME280;62090;52.330;9.104;2023-11-21T08:10:34;100900.97;;;8.70;100.00
3132;BME280;62090;52.330;9.104;2023-11-21T08:13:14;100937.06;;;8.85;100.00
3132;BME280;62090;52.330;9.104;2023-11-21T08:15:45;100656.50;;;7.27;100.00
3132;BME280;62090;52.330;9.104;2023-11-21T08:18:15;100800.56;;;8.07;100.00
3132;BME280;62090;52.330;9.104;2023-11-21T08:20:45;100925.66;;;8.74;100.00
3132;BME280;62090;52.330;9.104;2023-11-21T08:23:16;100865.28;;;8.42;100.00
3132;BME280;62090;52.330;9.104;2023-11-21T08:25:46;100913.91;;;8.53;100.00
3132;BME280;62090;52.330;9.104;2023-11-21T08:28:21;100874.94;;;8.28;100.00
3132;BME280;62090;52.330;9.104;2023-11-21T08:30:53;100935.03;;;8.52;100.00
3132;BME280;62090;52.330;9.104;2023-11-21T08:33:23;100949.81;;;8.62;100.00
3132;BME280;62090;52.330;9.104;2023-11-21T08:35:53;100948.66;;;8.54;100.00
3132;BME280;62090;52.330;9.104;2023-11-21T08:38:23;100934.91;;;8.48;100.00
3132;BME280;62090;52.330;9.104;2023-11-21T08:40:53;100909.53;;;8.26;100.00
3132;BME280;62090;52.330;9.104;2023-11-21T08:43:26;100970.22;;;8.65;100.00
3132;BME280;62090;52.330;9.104;2023-11-21T08:45:57;100924.91;;;8.29;100.00
3132;BME280;62090;52.330;9.104;2023-11-21T08:48:27;100982.06;;;8.64;100.00
3132;BME280;62090;52.330;9.104;2023-11-21T08:50:58;100987.22;;;8.67;100.00
3132;BME280;62090;52.330;9.104;2023-11-21T08:53:28;100981.41;;;8.70;100.00
3132;BME280;62090;52.330;9.104;2023-11-21T08:55:58;100998.81;;;8.83;100.00
3132;BME280;62090;52.330;9.104;2023-11-21T08:58:31;101009.19;;;8.89;100.00
3132;BME280;62090;52.330;9.104;2023-11-21T09:01:05;100978.06;;;8.71;100.00
3132;BME280;62090;52.330;9.104;2023-11-21T09:03:35;101019.50;;;8.94;100.00
3132;BME280;62090;52.330;9.104;2023-11-21T09:06:06;100990.06;;;8.75;100.00
3132;BME280;62090;52.330;9.104;2023-11-21T09:08:36;101020.38;;;8.94;100.00
3132;BME280;62090;52.330;9.104;2023-11-21T09:11:06;100953.19;;;8.38;100.00
3132;BME280;62090;52.330;9.104;2023-11-21T09:13:39;100970.47;;;8.48;100.00
3132;BME280;62090;52.330;9.104;2023-11-21T09:16:09;101037.13;;;8.89;100.00
3132;BME280;62090;52.330;9.104;2023-11-21T09:18:39;101045.69;;;8.91;100.00
3132;BME280;62090;52.330;9.104;2023-11-21T09:21:09;101016.97;;;8.70;100.00
3132;BME280;62090;52.330;9.104;2023-11-21T09:23:40;101039.91;;;8.71;100.00
3132;BME280;62090;52.330;9.104;2023-11-21T09:26:09;101036.72;;;8.77;100.00
3132;BME280;62090;52.330;9.104;2023-11-21T09:28:43;101053.16;;;8.86;100.00
3132;BME280;62090;52.330;9.104;2023-11-21T09:31:14;101048.25;;;8.91;100.00
3132;BME280;62090;52.330;9.104;2023-11-21T09:33:49;100996.91;;;8.54;100.00
3132;BME280;62090;52.330;9.104;2023-11-21T09:36:19;100969.56;;;8.24;100.00
3132;BME280;62090;52.330;9.104;2023-11-21T09:38:54;101017.44;;;8.60;100.00
3132;BME280;62090;52.330;9.104;2023-11-21T09:41:31;101075.50;;;8.95;100.00
3132;BME280;62090;52.330;9.104;2023-11-21T09:44:09;101057.84;;;8.76;100.00
3132;BME280;62090;52.330;9.104;2023-11-21T09:46:42;101082.47;;;8.77;100.00
3132;BME280;62090;52.330;9.104;2023-11-21T09:49:13;101089.31;;;8.79;100.00
3132;BME280;62090;52.330;9.104;2023-11-21T09:51:43;101076.81;;;8.62;100.00
3132;BME280;62090;52.330;9.104;2023-11-21T09:54:15;101081.75;;;8.59;100.00
3132;BME280;62090;52.330;9.104;2023-11-21T09:56:46;101036.03;;;8.36;100.00
3132;BME280;62090;52.330;9.104;2023-11-21T09:59:19;101110.41;;;8.77;100.00
3132;BME280;62090;52.330;9.104;2023-11-21T10:01:50;101111.28;;;8.77;100.00
3132;BME280;62090;52.330;9.104;2023-11-21T10:04:20;101127.81;;;8.68;100.00
3132;BME280;62090;52.330;9.104;2023-11-21T10:06:51;101124.31;;;8.64;100.00
3132;BME280;62090;52.330;9.104;2023-11-21T10:09:23;101101.66;;;8.48;100.00
3132;BME280;62090;52.330;9.104;2023-11-21T10:11:55;101120.91;;;8.64;100.00
3132;BME280;62090;52.330;9.104;2023-11-21T10:14:30;101123.56;;;8.67;100.00
3132;BME280;62090;52.330;9.104;2023-11-21T10:17:00;101124.41;;;8.67;100.00
3132;BME280;62090;52.330;9.104;2023-11-21T10:19:30;101136.03;;;8.61;100.00
3132;BME280;62090;52.330;9.104;2023-11-21T10:22:01;101138.44;;;8.58;100.00
3132;BME280;62090;52.330;9.104;2023-11-21T10:24:31;101128.81;;;8.49;100.00
3132;BME280;62090;52.330;9.104;2023-11-21T10:27:14;101125.84;;;8.38;100.00
3132;BME280;62090;52.330;9.104;2023-11-21T10:29:47;101160.94;;;8.48;100.00
3132;BME280;62090;52.330;9.104;2023-11-21T10:32:17;101082.00;;;8.01;100.00
3132;BME280;62090;52.330;9.104;2023-11-21T10:34:55;101120.38;;;8.29;100.00
3132;BME280;62090;52.330;9.104;2023-11-21T10:37:27;101161.75;;;8.47;100.00
3132;BME280;62090;52.330;9.104;2023-11-21T10:39:57;101155.97;;;8.52;100.00
3132;BME280;62090;52.330;9.104;2023-11-21T10:42:28;101158.72;;;8.56;100.00
3132;BME280;62090;52.330;9.104;2023-11-21T10:45:00;101171.34;;;8.55;100.00
3132;BME280;62090;52.330;9.104;2023-11-21T10:47:31;101167.78;;;8.50;100.00
3132;BME280;62090;52.330;9.104;2023-11-21T10:50:04;101165.47;;;8.56;100.00
3132;BME280;62090;52.330;9.104;2023-11-21T10:52:39;101165.09;;;8.46;100.00
3132;BME280;62090;52.330;9.104;2023-11-21T10:55:17;101148.88;;;8.43;100.00
3132;BME280;62090;52.330;9.104;2023-11-21T10:57:49;101138.09;;;8.48;100.00
3132;BME280;62090;52.330;9.104;2023-11-21T11:00:24;101103.56;;;8.31;100.00
3132;BME280;62090;52.330;9.104;2023-11-21T11:02:55;101169.41;;;8.70;100.00
3132;BME280;62090;52.330;9.104;2023-11-21T11:05:27;101169.50;;;8.73;100.00
3132;BME280;62090;52.330;9.104;2023-11-21T11:08:00;101175.69;;;8.79;100.00
3132;BME280;62090;52.330;9.104;2023-11-21T11:10:32;101146.84;;;8.57;100.00
3132;BME280;62090;52.330;9.104;2023-11-21T11:13:04;101185.00;;;8.79;100.00
3132;BME280;62090;52.330;9.104;2023-11-21T11:15:39;101172.44;;;8.82;100.00
3132;BME280;62090;52.330;9.104;2023-11-21T11:18:11;101161.09;;;8.74;100.00
3132;BME280;62090;52.330;9.104;2023-11-21T11:20:44;101185.56;;;8.94;100.00
3132;BME280;62090;52.330;9.104;2023-11-21T11:23:29;101188.34;;;9.00;100.00
3132;BME280;62090;52.330;9.104;2023-11-21T11:26:12;101185.41;;;8.89;100.00
3132;BME280;62090;52.330;9.104;2023-11-21T11:28:47;101198.47;;;8.99;100.00
3132;BME280;62090;52.330;9.104;2023-11-21T11:34:22;101211.06;;;8.96;100.00
3132;BME280;62090;52.330;9.104;2023-11-21T11:37:00;101165.44;;;8.76;100.00
3132;BME280;62090;52.330;9.104;2023-11-21T11:39:31;101202.69;;;8.98;100.00
3132;BME280;62090;52.330;9.104;2023-11-21T11:42:02;101206.03;;;8.97;100.00
3132;BME280;62090;52.330;9.104;2023-11-21T11:44:50;101223.78;;;8.96;100.00
3132;BME280;62090;52.330;9.104;2023-11-21T11:47:28;101222.63;;;8.87;100.00
3132;BME280;62090;52.330;9.104;2023-11-21T11:50:03;101178.59;;;8.66;100.00
3132;BME280;62090;52.330;9.104;2023-11-21T11:52:37;101173.78;;;8.74;100.00
3132;BME280;62090;52.330;9.104;2023-11-21T11:55:09;101194.78;;;8.90;100.00
3132;BME280;62090;52.330;9.104;2023-11-21T11:57:42;101201.66;;;8.93;100.00
3132;BME280;62090;52.330;9.104;2023-11-21T12:00:17;101226.47;;;9.00;100.00
3132;BME280;62090;52.330;9.104;2023-11-21T12:02:52;101233.84;;;8.93;100.00
3132;BME280;62090;52.330;9.104;2023-11-21T12:05:24;101210.84;;;8.69;100.00
3132;BME280;62090;52.330;9.104;2023-11-21T12:07:56;101225.81;;;8.83;100.00
3132;BME280;62090;52.330;9.104;2023-11-21T12:10:28;101236.22;;;8.89;100.00
3132;BME280;62090;52.330;9.104;2023-11-21T12:12:59;101228.25;;;8.80;100.00
3132;BME280;62090;52.330;9.104;2023-11-21T12:15:30;101226.44;;;8.78;100.00
3132;BME280;62090;52.330;9.104;2023-11-21T12:18:03;101258.56;;;8.76;100.00
3132;BME280;62090;52.330;9.104;2023-11-21T12:20:33;101180.38;;;8.27;100.00
3132;BME280;62090;52.330;9.104;2023-11-21T12:23:06;101260.13;;;8.72;100.00
3132;BME280;62090;52.330;9.104;2023-11-21T12:25:38;101254.41;;;8.78;100.00
3132;BME280;62090;52.330;9.104;2023-11-21T12:28:09;101264.81;;;8.84;100.00
3132;BME280;62090;52.330;9.104;2023-11-21T12:30:39;101262.28;;;8.84;100.00
3132;BME280;62090;52.330;9.104;2023-11-21T12:33:12;101272.00;;;8.94;100.00
3132;BME280;62090;52.330;9.104;2023-11-21T12:35:44;101234.66;;;8.71;100.00
3132;BME280;62090;52.330;9.104;2023-11-21T12:38:14;101217.31;;;8.61;100.00
3132;BME280;62090;52.330;9.104;2023-11-21T12:40:45;101271.00;;;8.90;100.00
3132;BME280;62090;52.330;9.104;2023-11-21T12:43:17;101269.53;;;8.96;100.00
3132;BME280;62090;52.330;9.104;2023-11-21T12:45:47;101155.78;;;8.26;100.00
3132;BME280;62090;52.330;9.104;2023-11-21T12:48:19;101274.94;;;9.05;100.00
3132;BME280;62090;52.330;9.104;2023-11-21T12:50:51;101273.34;;;9.07;100.00
3132;BME280;62090;52.330;9.104;2023-11-21T12:53:22;101279.59;;;8.93;100.00
3132;BME280;62090;52.330;9.104;2023-11-21T12:55:55;101277.53;;;8.84;99.70
3132;BME280;62090;52.330;9.104;2023-11-21T12:58:25;101248.34;;;8.54;98.39
3132;BME280;62090;52.330;9.104;2023-11-21T13:00:57;101257.72;;;8.55;99.46
3132;BME280;62090;52.330;9.104;2023-11-21T13:03:34;101219.91;;;8.41;99.17
3132;BME280;62090;52.330;9.104;2023-11-21T13:06:04;101255.44;;;8.61;100.00
3132;BME280;62090;52.330;9.104;2023-11-21T13:08:35;101300.53;;;8.87;98.50
3132;BME280;62090;52.330;9.104;2023-11-21T13:11:06;101267.19;;;8.59;98.37
3132;BME280;62090;52.330;9.104;2023-11-21T13:13:36;101313.16;;;8.85;98.51
3132;BME280;62090;52.330;9.104;2023-11-21T13:16:07;101311.00;;;8.74;100.00
3132;BME280;62090;52.330;9.104;2023-11-21T13:18:40;101326.59;;;8.83;99.81
3132;BME280;62090;52.330;9.104;2023-11-21T13:21:10;101338.75;;;8.90;100.00
3132;BME280;62090;52.330;9.104;2023-11-21T13:23:42;101339.56;;;8.89;99.81
3132;BME280;62090;52.330;9.104;2023-11-21T13:26:13;101307.97;;;8.62;99.31
3132;BME280;62090;52.330;9.104;2023-11-21T13:28:44;101333.84;;;8.74;100.00
3132;BME280;62090;52.330;9.104;2023-11-21T13:31:14;101279.53;;;8.30;98.28